map of KEXX home
Great Circle Mapper logo
KEXX - Airport
Location
City:  Lexington, North Carolina, United States
Name:Davidson County Airport
ICAO:KEXX
FAA:EXX

Details
Type:Airport (Airfield)
Use:Public/Civil
Latitude:3546'52"N (35.781139)
Longitude:8018'14"W (-80.303777)
Datum:WGS 1984
Elevation:733 ft (223 m)
Runways:1
Longest:5004 × 100 ft (1525 × 30.5 m), paved

Time
Time Zone:UTC-5 (DST-4)
Local Time:

Weather
METAR:KEXX 242235Z AUTO 00000KT 10SM CLR 15/08 A2998 RMK AO2 T01460080

Related Locations
Nearby:
Farthest:MGV: 11560 mi / 18604 km
Margaret River, WA, AU

Find:

   beyond  
but within

Other Information
Maps:
NOTAMs:
Links:
Sources:

  
flag of United States
flag of North Carolina
  

Sectional Chart

Flight Planning
at skyvector.com

Satellite Image

Google Maps Satellite View

 

Copyright © 2004-2014 Karl L. Swartz. All rights reserved.
The Great Circle Mapper name and logo are trademarks of the Great Circle Mapper.
All other trademarks mentioned herein belong to their respective owners.
Please see credits for attibutions and further copyright information.

  Follow gcmap on Facebook Follow gcmap on Twitter

hCard Microformat

Geo Microformat